ADDS METAR Data INFO
IDs: Format: Raw Decoded Include TAF

Data at: 1047 UTC 19 Oct 2017

KDCY 191035Z AUTO 16004KT 10SM CLR 08/07 A3020 RMK AO2 T00760066
KDCY 191015Z AUTO 00000KT 10SM CLR 07/06 A3020 RMK AO2 T00710061
KDCY 190955Z AUTO 00000KT 10SM CLR 07/06 A3020 RMK AO2 T00710062
KDCY 190935Z AUTO 12004KT 10SM CLR 07/06 A3019 RMK AO2 T00730064
KDCY 190915Z AUTO 00000KT 10SM CLR 07/06 A3019 RMK AO2 T00720063
KDCY 190855Z AUTO 17003KT 10SM CLR 08/07 A3018 RMK AO2 T00760067
KDCY 190835Z AUTO 17004KT 10SM CLR 08/07 A3018 RMK AO2 T00790070
KDCY 190815Z AUTO 16005KT 10SM CLR 07/06 A3018 RMK AO2 T00710062
KDCY 190755Z AUTO 16003KT 10SM CLR 08/06 A3018 RMK AO2 T00750061
KDCY 190735Z AUTO 17005KT 10SM CLR 08/07 A3018 RMK AO2 T00790070
KDCY 190715Z AUTO 16005KT 10SM CLR 07/06 A3018 RMK AO2 T00680059
KDCY 190655Z AUTO 00000KT 10SM CLR 07/06 A3018 RMK AO2 T00680059
KDCY 190635Z AUTO 17003KT 10SM CLR 07/06 A3018 RMK AO2 T00680060
KDCY 190615Z AUTO 16004KT 10SM CLR 07/06 A3018 RMK AO2 T00720063
KDCY 190555Z AUTO 16004KT 10SM CLR 07/06 A3018 RMK AO2 T00710061 10142 20070 402190030
KDCY 190535Z AUTO 14004KT 10SM CLR 08/06 A3018 RMK AO2 T00770063
KDCY 190515Z AUTO 13003KT 10SM CLR 09/06 A3017 RMK AO2 T00850062
KDCY 190455Z AUTO 00000KT 10SM CLR 08/06 A3017 RMK AO2 T00830063
KDCY 190435Z AUTO 17003KT 10SM CLR 10/07 A3017 RMK AO2 T01040070
KDCY 190415Z AUTO 18006KT 10SM CLR 10/08 A3017 RMK AO2 T00970076
KDCY 190355Z AUTO 17003KT 10SM CLR 08/07 A3018 RMK AO2 T00770065
KDCY 190335Z AUTO 00000KT 10SM CLR 09/06 A3018 RMK AO2 T00900062
KDCY 190315Z AUTO 18004KT 10SM CLR 11/06 A3018 RMK AO2 T01090064
KDCY 190255Z AUTO 18005KT 10SM CLR 12/07 A3017 RMK AO2 T01190066
KDCY 190235Z AUTO 18007KT 10SM CLR 12/07 A3017 RMK AO2 T01220065
KDCY 190215Z AUTO 17007KT 10SM CLR 13/07 A3017 RMK AO2 T01250065
KDCY 190155Z AUTO 18006KT 10SM CLR 12/06 A3017 RMK AO2 T01200062
KDCY 190135Z AUTO 18004KT 10SM CLR 12/07 A3017 RMK AO2 T01150065
KDCY 190115Z AUTO 18005KT 10SM CLR 11/06 A3017 RMK AO2 T01100060
KDCY 190055Z AUTO 18004KT 10SM CLR 10/06 A3018 RMK AO2 T00950059
KDCY 190035Z AUTO 16004KT 10SM CLR 12/06 A3017 RMK AO2 T01200059
KDCY 190015Z AUTO 17005KT 10SM CLR 13/06 A3017 RMK AO2 T01310059
KDCY 182355Z AUTO 17005KT 10SM CLR 14/06 A3017 RMK AO2 T01420058 10219 20133
KDCY 182335Z AUTO 17005KT 10SM CLR 14/06 A3017 RMK AO2 T01430058
KDCY 182315Z AUTO 18006KT 10SM CLR 16/06 A3017 RMK AO2 T01550059
KDCY 182255Z AUTO 17005KT 10SM CLR 18/06 A3017 RMK AO2 T01750055
KDCY 182235Z AUTO 18005KT 10SM CLR 19/05 A3017 RMK AO2 T01920049
KDCY 182215Z AUTO 19006KT 10SM CLR 20/05 A3017 RMK AO2 T02040048
KDCY 182155Z AUTO 18007KT 10SM CLR 21/05 A3017 RMK AO2 T02080046
KDCY 182135Z AUTO 19008KT 10SM CLR 21/04 A3017 RMK AO2 T02100041
KDCY 182115Z AUTO 19008KT 10SM CLR 22/04 A3018 RMK AO2 T02150041
KDCY 182055Z AUTO 18009KT 10SM CLR 22/03 A3018 RMK AO2 T02160032
KDCY 182035Z AUTO 19009G14KT 10SM CLR 22/03 A3018 RMK AO2 T02170034
KDCY 182015Z AUTO 19011KT 10SM CLR 22/03 A3019 RMK AO2 T02190034
KDCY 181955Z AUTO 19009KT 10SM CLR 22/05 A3019 RMK AO2 T02160047
KDCY 181935Z AUTO 20009G15KT 10SM CLR 21/05 A3020 RMK AO2 T02060046
KDCY 181915Z AUTO 18010KT 10SM CLR 22/04 A3021 RMK AO2 T02160044
KDCY 181855Z AUTO 21006KT 10SM CLR 21/05 A3021 RMK AO2 T02090045
KDCY 181835Z AUTO 22008G16KT 10SM CLR 21/04 A3023 RMK AO2 T02070042
KDCY 181815Z AUTO 22010G15KT 10SM CLR 21/04 A3023 RMK AO2 T02070044
KDCY 181755Z AUTO 20010KT 10SM CLR 21/04 A3024 RMK AO2 T02090044 10209 20050
KDCY 181735Z AUTO 19008G15KT 10SM CLR 20/05 A3025 RMK AO2 T01980045
KDCY 181715Z AUTO 20011G15KT 10SM CLR 21/04 A3026 RMK AO2 T02050044
KDCY 181655Z AUTO 22011G15KT 10SM CLR 20/04 A3027 RMK AO2 T01970043
KDCY 181635Z AUTO 22008KT 10SM CLR 20/05 A3027 RMK AO2 T01960052
KDCY 181615Z AUTO 21008KT 10SM CLR 19/06 A3028 RMK AO2 T01900056
KDCY 181555Z AUTO 20008KT 10SM CLR 18/06 A3028 RMK AO2 T01790058
KDCY 181535Z AUTO 19008KT 10SM CLR 17/06 A3029 RMK AO2 T01740058
KDCY 181515Z AUTO 19008KT 10SM CLR 17/06 A3029 RMK AO2 T01650055
KDCY 181455Z AUTO 18008KT 150V210 10SM CLR 16/05 A3029 RMK AO2 T01550054
KDCY 181435Z AUTO 18006KT 10SM CLR 14/06 A3029 RMK AO2 T01420061
KDCY 181415Z AUTO 18008KT 10SM CLR 13/06 A3029 RMK AO2 T01270060
KDCY 181355Z AUTO 17007KT 10SM CLR 11/06 A3029 RMK AO2 T01140063
KDCY 181335Z AUTO 17007KT 10SM CLR 10/07 A3029 RMK AO2 T01000066
KDCY 181315Z AUTO 17006KT 10SM CLR 09/07 A3029 RMK AO2 T00900065
KDCY 181255Z AUTO 17004KT 10SM CLR 08/07 A3028 RMK AO2 T00790066
KDCY 181235Z AUTO 15003KT 10SM CLR 06/05 A3028 RMK AO2 T00610050
KDCY 181215Z AUTO 00000KT 10SM CLR 05/04 A3027 RMK AO2 T00520043
KDCY 181155Z AUTO 00000KT 10SM CLR 05/04 A3027 RMK AO2 T00510041 10063 20030
KDCY 181135Z AUTO 17005KT 10SM CLR 06/05 A3026 RMK AO2 T00570048
KDCY 181115Z AUTO 16004KT 10SM CLR 05/05 A3026 RMK AO2 T00530045
KDCY 181055Z AUTO 17004KT 10SM CLR 05/04 A3026 RMK AO2 T00500040
KDCY 181035Z AUTO 16004KT 7SM CLR 04/03 A3025 RMK AO2 T00390030
KDCY 181015Z AUTO 15003KT 10SM CLR 03/02 A3025 RMK AO2 T00310022
KDCY 180955Z AUTO 00000KT 10SM CLR 04/03 A3025 RMK AO2 T00350026
KDCY 180935Z AUTO 00000KT 10SM CLR 03/02 A3025 RMK AO2 T00320023
KDCY 180915Z AUTO 00000KT 10SM CLR 03/03 A3025 RMK AO2 T00340025
KDCY 180855Z AUTO 00000KT 10SM CLR 04/03 A3025 RMK AO2 T00380029
KDCY 180835Z AUTO 00000KT 10SM CLR 04/04 A3025 RMK AO2 T00440035
KDCY 180815Z AUTO 00000KT 10SM CLR 04/04 A3025 RMK AO2 T00440035
KDCY 180755Z AUTO 15003KT 10SM CLR 04/03 A3025 RMK AO2 T00420033
KDCY 180735Z AUTO 14003KT 10SM CLR 04/03 A3025 RMK AO2 T00410032
KDCY 180715Z AUTO 13003KT 10SM CLR 05/04 A3025 RMK AO2 T00450036
KDCY 180655Z AUTO 00000KT 10SM CLR 04/03 A3025 RMK AO2 T00420033
KDCY 180635Z AUTO 00000KT 10SM CLR 04/04 A3025 RMK AO2 T00430035
KDCY 180615Z AUTO 00000KT 10SM CLR 05/04 A3025 RMK AO2 T00450036
KDCY 180555Z AUTO 00000KT 10SM CLR 06/05 A3025 RMK AO2 T00550046 10110 20048 401980023
KDCY 180535Z AUTO 18003KT 10SM CLR 06/05 A3025 RMK AO2 T00560046
KDCY 180515Z AUTO 18003KT 10SM CLR 06/05 A3025 RMK AO2 T00560047
KDCY 180455Z AUTO 00000KT 10SM CLR 05/04 A3025 RMK AO2 T00480040
KDCY 180435Z AUTO 00000KT 10SM CLR 05/05 A3026 RMK AO2 T00530045
KDCY 180415Z AUTO 00000KT 10SM CLR 05/05 A3026 RMK AO2 T00540045
KDCY 180355Z AUTO 00000KT 10SM CLR 06/05 A3026 RMK AO2 T00600050
KDCY 180335Z AUTO 16003KT 10SM CLR 06/05 A3026 RMK AO2 T00620048
KDCY 180315Z AUTO 00000KT 10SM CLR 07/06 A3026 RMK AO2 T00700057
KDCY 180255Z AUTO 12003KT 10SM CLR 08/06 A3026 RMK AO2 T00760058
KDCY 180235Z AUTO 00000KT 10SM CLR 07/06 A3026 RMK AO2 T00720059
KDCY 180215Z AUTO 14003KT 10SM CLR 08/06 A3025 RMK AO2 T00790061
KDCY 180155Z AUTO 00000KT 10SM CLR 09/04 A3025 RMK AO2 T00940044
KDCY 180135Z AUTO 16003KT 10SM CLR 10/04 A3025 RMK AO2 T01040041
KDCY 180115Z AUTO 17004KT 10SM CLR 10/05 A3025 RMK AO2 T01000045
KDCY 180055Z AUTO 17003KT 10SM CLR 09/05 A3025 RMK AO2 T00880046
KDCY 180035Z AUTO 17003KT 10SM CLR 09/05 A3025 RMK AO2 T00940046
KDCY 180015Z AUTO 15003KT 10SM CLR 10/05 A3024 RMK AO2 T00990050
KDCY 172355Z AUTO 17003KT 10SM CLR 10/04 A3024 RMK AO2 T01040042 10198 20100
KDCY 172335Z AUTO 19005KT 10SM CLR 10/05 A3024 RMK AO2 T01000050
KDCY 172315Z AUTO 20004KT 10SM CLR 11/05 A3024 RMK AO2 T01120049
KDCY 172255Z AUTO 19003KT 10SM CLR 14/04 A3024 RMK AO2 T01380036